Langston, OK (73050)

9:19 AM CST on February 08, 2016 (GMT -0600)
3.8 Miles SE of Downtown | | Change Station
CLOSE
Current Station
Personal Weather Station
Location: Guthrie, OK
Elevation: 1200 ft
Nearby Weather Stations
Active Advisory: Wind Advisory

Elev 1200 ft 35.83 °N, 97.36 °W | Updated 15 seconds ago

Clear
Clear
38.2 °F
Feels Like 28 °F
N
21.0
Wind Variable Wind from NW
Gusts 31.5 mph

Today
High -- | Low -- °F
--% Chance of Precip.
Yesterday
High -- | Low -- °F
Precip. -- in
Pressure 30.32 in
Visibility 10.0 miles
Clouds Clear
Windchill 28 °F
Dew Point 18 °F
Humidity 44%
Rainfall 0.00 in
Snow Depth Not available.
7:23 AM 6:02 PM
New Moon, 0% visible
METAR KGOK 081453Z AUTO 31014G24KT 10SM CLR 03/M09 A3030 RMK AO2 SLP265 T00331094 53010
Pressure 30.32 in
Visibility 10.0 miles
Clouds Clear
Windchill 28 °F
Dew Point 18 °F
Humidity 44%
Rainfall 0.00 in
Snow Depth Not available.
7:23 AM 6:02 PM
New Moon, 0% visible
METAR KGOK 081453Z AUTO 31014G24KT 10SM CLR 03/M09 A3030 RMK AO2 SLP265 T00331094 53010

10-Day Weather Forecast

Almanac

Astronomy

Feb. 08, 2016 Rise Set
Actual Time
Civil Twilight
Nautical Twilight
Astronomical Twilight
Moon
Length of Visible Light
Length of Day
Tomorrow will be .
, % of the Moon is Illuminated

Today's Extremes

State Highs State Lows

Community

WunderPhotos

Upload Photos

1,891,450 photos uploaded!

WunderBlog® & News

Nearby

Air Quality

  Air Quality AQ Index Pollutant
Not available.

Snow Depth

Station Depth Elevation

Earthquake Activity

City Distance Mag. Time & Date
Minimum magnitude displayed is 2.5.

Coastal Water Temperatures

Place Temperature

Stations

Nearby Weather Stations

Station Location Temp. Windchill Dew Point Humidity Wind Precip. Elev Updated Type
                   

Watches & Warnings

Wind Advisory
Issued: 2:57 AM CST Feb. 8, 2016 – National Weather Service

... Wind Advisory in effect from 10 am this morning to 6 PM CST
this evening...

* timing... late this morning through early this evening.

* Winds... north 30 to 35 mph with gusts near 40 to 50 mph.

* Impacts... driving may become difficult at times especially on
west and east roadways. Residents should ensure lightweight
outdoor objects are secured.

Precautionary/preparedness actions...

Be careful if you have to travel or if you are working or playing
outside.